createdAt,value
2018-04-15T00:00:19.556Z,98278.36
2018-04-15T00:02:47.032Z,98285.39
2018-04-15T00:05:14.510Z,98286.67
2018-04-15T00:07:41.988Z,98281.09
2018-04-15T00:10:09.571Z,98288.44
2018-04-15T00:12:37.044Z,98284.69
2018-04-15T00:15:04.504Z,98286.19
2018-04-15T00:17:32.237Z,98284.53
2018-04-15T00:19:59.769Z,98279.92
2018-04-15T00:22:27.244Z,98280.08
2018-04-15T00:24:55.155Z,98273.97
2018-04-15T00:27:22.621Z,98269.15
2018-04-15T00:29:50.080Z,98265.71
2018-04-15T00:32:17.597Z,98264.33
2018-04-15T00:34:45.238Z,98268.17
2018-04-15T00:37:12.711Z,98269.03
2018-04-15T00:39:40.464Z,98267.25
2018-04-15T00:42:07.965Z,98259.97
2018-04-15T00:44:35.669Z,98260.47
2018-04-15T00:47:03.117Z,98258.28
2018-04-15T00:49:30.592Z,98254.97
2018-04-15T00:51:58.072Z,98260.27
2018-04-15T00:54:25.582Z,98260.41
2018-04-15T00:56:53.052Z,98258.30
2018-04-15T00:59:20.562Z,98254.69
2018-04-15T01:01:48.040Z,98256.52
2018-04-15T01:04:15.522Z,98255.45
2018-04-15T01:06:43.001Z,98259.23
2018-04-15T01:09:10.479Z,98249.86
2018-04-15T01:11:37.959Z,98253.25
2018-04-15T01:14:05.446Z,98252.88
2018-04-15T01:16:32.930Z,98248.63
2018-04-15T01:19:00.393Z,98249.52
2018-04-15T01:21:27.863Z,98247.41
2018-04-15T01:23:55.817Z,98245.74
2018-04-15T01:26:23.284Z,98243.62
2018-04-15T01:28:50.769Z,98245.95
2018-04-15T01:31:18.262Z,98240.41
2018-04-15T01:33:45.738Z,98237.41
2018-04-15T01:36:13.214Z,98244.98
2018-04-15T01:38:40.697Z,98250.78
2018-04-15T01:41:08.205Z,98246.37
2018-04-15T01:43:35.677Z,98252.17
2018-04-15T01:46:03.211Z,98251.71
2018-04-15T01:48:30.667Z,98258.75
2018-04-15T01:50:58.129Z,98263.19
2018-04-15T01:53:25.653Z,98261.82
2018-04-15T01:55:53.131Z,98262.81
2018-04-15T01:58:20.610Z,98261.59
2018-04-15T02:00:48.070Z,98262.07
2018-04-15T02:03:15.546Z,98267.03
2018-04-15T02:05:43.061Z,98267.43
2018-04-15T02:08:10.555Z,98272.30
2018-04-15T02:10:38.031Z,98268.91
2018-04-15T02:13:05.498Z,98273.30
2018-04-15T02:15:33.006Z,98269.49
2018-04-15T02:18:00.548Z,98272.27
2018-04-15T02:20:28.125Z,98274.17
2018-04-15T02:22:55.615Z,98270.13
2018-04-15T02:25:23.100Z,98265.73
2018-04-15T02:27:50.584Z,98273.20
2018-04-15T02:30:18.071Z,98268.72
2018-04-15T02:32:45.536Z,98266.68
2018-04-15T02:35:13.538Z,98258.28
2018-04-15T02:37:41.120Z,98262.34
2018-04-15T02:40:08.616Z,98260.60
2018-04-15T02:42:36.083Z,98258.88
2018-04-15T02:45:03.592Z,98251.53
2018-04-15T02:47:31.069Z,98240.66
2018-04-15T02:49:58.628Z,98229.31
2018-04-15T02:52:26.508Z,98223.67
2018-04-15T02:54:54.059Z,98220.27
2018-04-15T02:57:21.514Z,98218.64
2018-04-15T02:59:49.053Z,98220.92
2018-04-15T03:02:16.541Z,98227.16
2018-04-15T03:04:44.022Z,98225.95
2018-04-15T03:07:11.503Z,98224.27
2018-04-15T03:09:38.996Z,98223.04
2018-04-15T03:12:06.462Z,98219.00
2018-04-15T03:14:33.931Z,98212.48
2018-04-15T03:17:01.393Z,98212.98
2018-04-15T03:19:28.874Z,98213.47
2018-04-15T03:21:56.335Z,98217.07
2018-04-15T03:24:23.916Z,98211.53
2018-04-15T03:26:51.446Z,98203.28
2018-04-15T03:29:18.946Z,98205.05
2018-04-15T03:31:46.590Z,98201.55
2018-04-15T03:34:14.099Z,98199.01
2018-04-15T03:36:41.577Z,98200.70
2018-04-15T03:39:09.087Z,98201.66
2018-04-15T03:41:36.608Z,98202.52
2018-04-15T03:44:04.111Z,98200.26
2018-04-15T03:46:31.598Z,98202.97
2018-04-15T03:48:59.061Z,98203.31
2018-04-15T03:51:26.557Z,98206.80
2018-04-15T03:53:54.031Z,98216.00
2018-04-15T03:56:21.724Z,98215.59
2018-04-15T03:58:49.240Z,98213.45
2018-04-15T04:01:16.721Z,98210.81
2018-04-15T04:03:44.285Z,98186.79
2018-04-15T04:06:11.762Z,98190.25
2018-04-15T04:08:39.266Z,98198.63
2018-04-15T04:11:06.773Z,98196.00
2018-04-15T04:13:34.252Z,98197.74
2018-04-15T04:16:01.748Z,98194.32
2018-04-15T04:18:41.134Z,98191.23
2018-04-15T04:21:20.559Z,98184.68
2018-04-15T04:24:00.961Z,98184.22
2018-04-15T04:26:28.439Z,98180.22
2018-04-15T04:28:55.907Z,98182.41
2018-04-15T04:31:23.414Z,98186.70
2018-04-15T04:33:50.983Z,98189.84
2018-04-15T04:36:18.468Z,98190.76
2018-04-15T04:38:45.971Z,98183.83
2018-04-15T04:41:13.458Z,98182.91
2018-04-15T04:43:40.928Z,98185.14
2018-04-15T04:46:08.398Z,98179.24
2018-04-15T04:48:35.910Z,98178.08
2018-04-15T04:51:03.422Z,98173.66
2018-04-15T04:53:30.920Z,98182.86
2018-04-15T04:55:58.396Z,98182.88
2018-04-15T04:58:25.894Z,98182.84
2018-04-15T05:00:53.368Z,98175.77
2018-04-15T05:03:20.852Z,98181.39
2018-04-15T05:05:48.342Z,98187.96
2018-04-15T05:08:15.823Z,98184.86
2018-04-15T05:10:43.339Z,98192.28
2018-04-15T05:13:10.836Z,98198.43
2018-04-15T05:15:38.318Z,98192.23
2018-04-15T05:18:05.849Z,98190.75
2018-04-15T05:20:33.330Z,98187.17
2018-04-15T05:23:00.814Z,98185.24
2018-04-15T05:25:28.320Z,98187.94
2018-04-15T05:27:55.798Z,98185.88
2018-04-15T05:30:23.284Z,98190.44
2018-04-15T05:32:50.799Z,98195.73
2018-04-15T05:35:18.269Z,98204.94
2018-04-15T05:37:45.724Z,98202.86
2018-04-15T05:40:13.195Z,98202.19
2018-04-15T05:42:40.688Z,98199.22
2018-04-15T05:45:08.163Z,98196.66
2018-04-15T05:47:35.636Z,98191.67
2018-04-15T05:50:03.147Z,98186.17
2018-04-15T05:52:30.634Z,98188.94
2018-04-15T05:54:58.104Z,98191.16
2018-04-15T05:57:25.608Z,98191.97
2018-04-15T05:59:53.066Z,98187.91
2018-04-15T06:02:20.599Z,98180.98
2018-04-15T06:04:48.079Z,98184.46
2018-04-15T06:07:15.566Z,98182.52
2018-04-15T06:09:43.223Z,98187.09
2018-04-15T06:12:10.699Z,98177.16
2018-04-15T06:14:38.157Z,98178.77
2018-04-15T06:17:05.618Z,98180.45
2018-04-15T06:19:33.103Z,98171.86
2018-04-15T06:22:00.596Z,98172.35
2018-04-15T06:24:28.208Z,98171.55
2018-04-15T06:26:55.671Z,98169.38
2018-04-15T06:29:23.257Z,98172.75
2018-04-15T06:31:50.770Z,98165.45
2018-04-15T06:34:18.445Z,98165.75
2018-04-15T06:36:46.002Z,98164.17
2018-04-15T06:39:13.445Z,98171.31
2018-04-15T06:41:41.062Z,98165.70
2018-04-15T06:44:08.533Z,98171.64
2018-04-15T06:46:36.058Z,98168.80
2018-04-15T06:49:03.533Z,98166.37
2018-04-15T06:51:31.500Z,98164.05
2018-04-15T06:54:00.302Z,98163.95
2018-04-15T06:56:27.991Z,98159.19
2018-04-15T06:58:55.818Z,98160.31
2018-04-15T07:01:23.430Z,98153.44
2018-04-15T07:03:54.863Z,98154.62
2018-04-15T07:06:22.793Z,98157.33
2018-04-15T07:08:51.097Z,98154.41
2018-04-15T07:11:19.989Z,98156.01
2018-04-15T07:13:48.347Z,98155.80
2018-04-15T07:16:22.662Z,98154.21
2018-04-15T07:18:53.224Z,98160.88
2018-04-15T07:21:21.193Z,98147.25
2018-04-15T07:23:49.879Z,98147.00
2018-04-15T07:26:24.978Z,98144.75
2018-04-15T07:28:53.799Z,98144.58
2018-04-15T07:31:23.633Z,98141.53
2018-04-15T07:33:52.464Z,98136.04
2018-04-15T07:36:21.050Z,98140.22
2018-04-15T07:38:50.912Z,98137.12
2018-04-15T07:41:19.849Z,98133.25
2018-04-15T07:43:47.595Z,98132.67
2018-04-15T07:46:20.019Z,98128.16
2018-04-15T07:48:50.677Z,98123.75
2018-04-15T07:51:19.846Z,98117.77
2018-04-15T07:53:47.906Z,98117.17
2018-04-15T07:56:16.209Z,98108.06
2018-04-15T07:58:43.948Z,98100.92
2018-04-15T08:01:12.534Z,98100.30
2018-04-15T08:03:40.341Z,98099.31
2018-04-15T08:06:07.993Z,98096.76
2018-04-15T08:08:36.708Z,98095.31
2018-04-15T08:11:04.383Z,98092.05
2018-04-15T08:13:31.944Z,98092.88
2018-04-15T08:15:59.514Z,98093.31
2018-04-15T08:18:27.019Z,98095.16
2018-04-15T08:20:54.514Z,98100.32
2018-04-15T08:23:22.078Z,98096.52
2018-04-15T08:25:49.599Z,98092.41
2018-04-15T08:28:17.088Z,98099.65
2018-04-15T08:30:44.595Z,98095.50
2018-04-15T08:33:12.159Z,98096.63
2018-04-15T08:35:39.756Z,98092.98
2018-04-15T08:38:07.459Z,98086.58
2018-04-15T08:40:34.952Z,98082.90
2018-04-15T08:43:02.450Z,98077.70
2018-04-15T08:45:30.087Z,98075.25
2018-04-15T08:47:57.797Z,98073.42
2018-04-15T08:50:25.298Z,98078.27
2018-04-15T08:52:52.806Z,98072.72
2018-04-15T08:55:20.385Z,98081.95
2018-04-15T08:57:47.886Z,98076.86
2018-04-15T09:00:15.355Z,98076.86
2018-04-15T09:02:42.864Z,98067.78
2018-04-15T09:05:10.485Z,98065.95
2018-04-15T09:07:37.967Z,98068.05
2018-04-15T09:10:05.466Z,98067.91
2018-04-15T09:12:32.975Z,98072.95
2018-04-15T09:15:00.499Z,98076.17
2018-04-15T09:17:27.989Z,98068.37
2018-04-15T09:19:55.705Z,98064.43
2018-04-15T09:22:23.215Z,98057.19
2018-04-15T09:24:50.730Z,98062.78
2018-04-15T09:27:18.217Z,98067.85
2018-04-15T09:29:45.829Z,98066.72
2018-04-15T09:32:13.863Z,98061.05
2018-04-15T09:34:41.338Z,98055.35
2018-04-15T09:37:08.797Z,98051.13
2018-04-15T09:39:36.306Z,98044.98
2018-04-15T09:42:03.808Z,98042.78
2018-04-15T09:44:31.334Z,98045.38
2018-04-15T09:46:58.800Z,98047.29
2018-04-15T09:49:26.279Z,98049.76
2018-04-15T09:51:53.785Z,98052.73
2018-04-15T09:54:21.308Z,98041.32
2018-04-15T09:56:48.805Z,98037.77
2018-04-15T09:59:16.321Z,98032.14
2018-04-15T10:01:43.822Z,98036.83
2018-04-15T10:04:11.315Z,98037.09
2018-04-15T10:06:38.797Z,98033.45
2018-04-15T10:09:06.286Z,98025.97
2018-04-15T10:11:33.785Z,98024.81
2018-04-15T10:14:01.274Z,98020.06
2018-04-15T10:16:28.742Z,98025.17
2018-04-15T10:18:56.210Z,98022.09
2018-04-15T10:21:23.687Z,98020.71
2018-04-15T10:23:51.172Z,98013.70
2018-04-15T10:26:20.105Z,98015.07
2018-04-15T10:28:47.605Z,98006.28
2018-04-15T10:31:15.170Z,98004.63
2018-04-15T10:33:42.646Z,97999.55
2018-04-15T10:36:10.268Z,97997.22
2018-04-15T10:38:37.800Z,97995.13
2018-04-15T10:41:05.296Z,97996.45
2018-04-15T10:43:32.770Z,97994.11
2018-04-15T10:46:00.260Z,97995.47
2018-04-15T10:48:27.790Z,97997.47
2018-04-15T10:50:55.285Z,97995.24
2018-04-15T10:53:22.771Z,97999.91
2018-04-15T10:55:50.261Z,97995.84
2018-04-15T10:58:17.783Z,97983.33
2018-04-15T11:00:45.335Z,97979.64
2018-04-15T11:03:12.804Z,97980.67
2018-04-15T11:05:40.449Z,97979.13
2018-04-15T11:08:07.922Z,97975.02
2018-04-15T11:10:35.462Z,97980.58
2018-04-15T11:13:03.027Z,97975.24
2018-04-15T11:15:30.512Z,97969.16
2018-04-15T11:17:58.002Z,97961.80
2018-04-15T11:20:25.514Z,97978.56
2018-04-15T11:22:52.979Z,97964.20
2018-04-15T11:25:20.439Z,97962.06
2018-04-15T11:27:47.898Z,97954.83
2018-04-15T11:30:15.478Z,97950.81
2018-04-15T11:32:42.976Z,97938.70
2018-04-15T11:35:10.462Z,97943.94
2018-04-15T11:37:37.945Z,97937.67
2018-04-15T11:40:05.434Z,97933.67
2018-04-15T11:42:32.917Z,97931.80
2018-04-15T11:45:00.465Z,97926.81
2018-04-15T11:47:27.954Z,97928.28
2018-04-15T11:49:55.496Z,97925.88
2018-04-15T11:52:23.046Z,97930.21
2018-04-15T11:54:50.539Z,97922.81
2018-04-15T11:57:18.015Z,97910.63
2018-04-15T11:59:45.514Z,97904.23
2018-04-15T12:02:13.268Z,97902.73
2018-04-15T12:04:40.782Z,97905.23
2018-04-15T12:07:08.277Z,97891.59
2018-04-15T12:09:35.753Z,97886.47
2018-04-15T12:12:03.264Z,97886.05
2018-04-15T12:14:30.745Z,97886.11
2018-04-15T12:16:58.227Z,97887.92
2018-04-15T12:19:25.721Z,97881.52
2018-04-15T12:21:53.192Z,97880.31
2018-04-15T12:24:20.660Z,97879.78
2018-04-15T12:26:48.370Z,97880.34
2018-04-15T12:29:15.878Z,97873.20
2018-04-15T12:31:43.384Z,97871.32
2018-04-15T12:34:10.936Z,97880.14
2018-04-15T12:36:38.441Z,97878.59
2018-04-15T12:39:06.843Z,97879.14
2018-04-15T12:41:34.327Z,97870.68
2018-04-15T12:44:01.828Z,97863.41
2018-04-15T12:46:29.299Z,97853.13
2018-04-15T12:48:56.800Z,97833.44
2018-04-15T12:51:24.320Z,97826.67
2018-04-15T12:53:51.789Z,97824.91
2018-04-15T12:56:19.276Z,97819.58
2018-04-15T12:58:46.756Z,97814.13
2018-04-15T13:01:14.321Z,97808.37
2018-04-15T13:03:41.801Z,97801.06
2018-04-15T13:06:09.331Z,97793.34
2018-04-15T13:08:36.807Z,97787.97
2018-04-15T13:11:04.300Z,97785.56
2018-04-15T13:13:31.772Z,97769.18
2018-04-15T13:15:59.270Z,97773.39
2018-04-15T13:18:26.755Z,97767.08
2018-04-15T13:20:54.245Z,97772.22
2018-04-15T13:23:21.803Z,97769.78
2018-04-15T13:25:49.294Z,97763.42
2018-04-15T13:28:16.859Z,97765.92
2018-04-15T13:30:44.324Z,97765.09
2018-04-15T13:33:12.016Z,97759.10
2018-04-15T13:35:39.513Z,97764.39
2018-04-15T13:38:06.992Z,97762.22
2018-04-15T13:40:34.484Z,97763.40
2018-04-15T13:43:01.958Z,97760.56
2018-04-15T13:45:29.447Z,97764.34
2018-04-15T13:47:56.911Z,97764.82
2018-04-15T13:50:24.413Z,97762.12
2018-04-15T13:52:51.967Z,97769.17
2018-04-15T13:55:19.478Z,97770.27
2018-04-15T13:57:46.996Z,97762.19
2018-04-15T14:00:14.473Z,97760.20
2018-04-15T14:02:41.940Z,97759.11
2018-04-15T14:05:09.433Z,97749.29
2018-04-15T14:07:36.925Z,97750.13
2018-04-15T14:10:04.549Z,97746.14
2018-04-15T14:12:32.037Z,97747.14
2018-04-15T14:14:59.540Z,97740.14
2018-04-15T14:17:27.027Z,97732.12
2018-04-15T14:19:54.623Z,97725.76
2018-04-15T14:22:22.119Z,97727.88
2018-04-15T14:24:50.838Z,97717.05
2018-04-15T14:27:18.479Z,97709.81
2018-04-15T14:29:46.336Z,97708.72
2018-04-15T14:32:15.195Z,97710.16
2018-04-15T14:34:43.699Z,97708.13
2018-04-15T14:37:11.181Z,97709.00
2018-04-15T14:39:38.689Z,97712.42
2018-04-15T14:42:06.153Z,97706.59
2018-04-15T14:44:33.627Z,97704.71
2018-04-15T14:47:01.130Z,97696.64
2018-04-15T14:49:28.673Z,97696.05
2018-04-15T14:51:56.152Z,97695.59
2018-04-15T14:54:23.617Z,97699.66
2018-04-15T14:56:51.375Z,97693.07
2018-04-15T14:59:18.858Z,97688.15
2018-04-15T15:01:46.334Z,97684.78
2018-04-15T15:04:13.833Z,97685.72
2018-04-15T15:06:41.362Z,97688.69
2018-04-15T15:09:08.842Z,97681.16
2018-04-15T15:11:36.314Z,97678.04
2018-04-15T15:14:03.797Z,97683.22
2018-04-15T15:16:31.287Z,97672.77
2018-04-15T15:18:58.773Z,97670.08
2018-04-15T15:21:26.248Z,97664.88
2018-04-15T15:23:53.922Z,97664.55
2018-04-15T15:26:21.389Z,97663.88
2018-04-15T15:28:48.911Z,97660.91
2018-04-15T15:31:16.408Z,97660.66
2018-04-15T15:33:43.901Z,97647.45
2018-04-15T15:36:11.415Z,97657.25
2018-04-15T15:38:38.884Z,97655.82
2018-04-15T15:41:06.344Z,97658.41
2018-04-15T15:43:33.823Z,97660.48
2018-04-15T15:46:01.292Z,97652.11
2018-04-15T15:48:28.874Z,97652.55
2018-04-15T15:50:56.341Z,97643.02
2018-04-15T15:53:24.101Z,97655.44
2018-04-15T15:55:51.582Z,97648.67
2018-04-15T15:58:19.123Z,97650.36
2018-04-15T16:00:46.618Z,97659.70
2018-04-15T16:03:14.153Z,97649.55
2018-04-15T16:05:41.629Z,97655.46
2018-04-15T16:08:09.199Z,97654.28
2018-04-15T16:10:36.697Z,97664.76
2018-04-15T16:13:04.202Z,97658.77
2018-04-15T16:15:31.682Z,97670.64
2018-04-15T16:17:59.182Z,97674.41
2018-04-15T16:20:26.660Z,97673.05
2018-04-15T16:22:54.159Z,97662.76
2018-04-15T16:25:21.655Z,97661.59
2018-04-15T16:27:49.251Z,97666.08
2018-04-15T16:30:16.740Z,97678.58
2018-04-15T16:32:44.228Z,97673.00
2018-04-15T16:35:11.693Z,97677.98
2018-04-15T16:37:39.197Z,97680.56
2018-04-15T16:40:06.688Z,97676.80
2018-04-15T16:42:37.115Z,97674.30
2018-04-15T16:45:04.618Z,97675.25
2018-04-15T16:47:32.177Z,97664.19
2018-04-15T16:49:59.698Z,97672.11
2018-04-15T16:52:27.170Z,97676.06
2018-04-15T16:54:54.722Z,97675.28
2018-04-15T16:57:22.203Z,97679.34
2018-04-15T16:59:49.799Z,97677.13
2018-04-15T17:02:17.340Z,97680.30
2018-04-15T17:04:44.875Z,97677.80
2018-04-15T17:07:12.373Z,97687.34
2018-04-15T17:09:39.938Z,97693.25
2018-04-15T17:12:07.410Z,97693.62
2018-04-15T17:14:34.916Z,97698.31
2018-04-15T17:17:02.430Z,97696.27
2018-04-15T17:19:29.921Z,97704.00
2018-04-15T17:21:57.515Z,97702.87
2018-04-15T17:24:24.992Z,97707.67
2018-04-15T17:26:52.489Z,97714.16
2018-04-15T17:29:19.961Z,97716.28
2018-04-15T17:31:47.783Z,97715.94
2018-04-15T17:34:15.294Z,97724.31
2018-04-15T17:36:42.804Z,97721.76
2018-04-15T17:39:10.507Z,97724.61
2018-04-15T17:41:38.007Z,97725.97
2018-04-15T17:44:05.480Z,97723.19
2018-04-15T17:46:34.039Z,97727.99
2018-04-15T17:49:02.119Z,97728.37
2018-04-15T17:51:29.681Z,97725.47
2018-04-15T17:53:57.174Z,97723.66
2018-04-15T17:56:24.641Z,97732.71
2018-04-15T17:58:52.152Z,97736.33
2018-04-15T18:01:19.673Z,97735.14
2018-04-15T18:03:47.368Z,97738.94
2018-04-15T18:06:14.852Z,97747.16
2018-04-15T18:08:42.702Z,97748.88
2018-04-15T18:11:10.231Z,97747.33
2018-04-15T18:13:37.726Z,97751.72
2018-04-15T18:16:05.213Z,97753.73
2018-04-15T18:18:32.737Z,97749.41
2018-04-15T18:21:00.237Z,97747.22
2018-04-15T18:23:27.738Z,97753.14
2018-04-15T18:25:56.082Z,97754.81
2018-04-15T18:28:23.562Z,97752.90
2018-04-15T18:30:51.159Z,97760.59
2018-04-15T18:33:18.647Z,97760.89
2018-04-15T18:35:46.398Z,97752.63
2018-04-15T18:38:13.881Z,97752.98
2018-04-15T18:40:41.399Z,97755.23
2018-04-15T18:43:08.861Z,97757.55
2018-04-15T18:45:36.436Z,97762.96
2018-04-15T18:48:03.921Z,97758.17
2018-04-15T18:50:31.407Z,97760.70
2018-04-15T18:52:58.877Z,97761.11
2018-04-15T18:55:26.395Z,97761.81
2018-04-15T18:57:53.902Z,97763.78
2018-04-15T19:00:21.376Z,97767.16
2018-04-15T19:02:48.926Z,97770.67
2018-04-15T19:05:16.470Z,97768.70
2018-04-15T19:07:43.958Z,97768.02
2018-04-15T19:10:11.427Z,97769.36
2018-04-15T19:12:38.947Z,97773.53
2018-04-15T19:15:06.461Z,97773.24
2018-04-15T19:17:33.956Z,97777.27
2018-04-15T19:20:01.434Z,97773.52
2018-04-15T19:22:28.929Z,97777.66
2018-04-15T19:24:56.856Z,97780.04
2018-04-15T19:27:24.360Z,97783.33
2018-04-15T19:29:51.853Z,97785.28
2018-04-15T19:32:19.354Z,97786.79
2018-04-15T19:34:46.864Z,97788.45
2018-04-15T19:37:14.366Z,97780.63
2018-04-15T19:39:41.877Z,97790.50
2018-04-15T19:42:09.389Z,97794.84
2018-04-15T19:44:37.098Z,97799.11
2018-04-15T19:47:04.820Z,97801.75
2018-04-15T19:49:32.439Z,97803.62
2018-04-15T19:52:00.010Z,97808.63
2018-04-15T19:54:27.494Z,97801.65
2018-04-15T19:56:54.974Z,97798.90
2018-04-15T20:01:50.588Z,97801.31
2018-04-15T20:04:18.070Z,97805.93
2018-04-15T20:06:45.549Z,97805.61
2018-04-15T20:09:13.029Z,97803.75
2018-04-15T20:11:40.530Z,97808.28
2018-04-15T20:14:08.049Z,97806.86
2018-04-15T20:16:35.534Z,97809.23
2018-04-15T20:19:03.097Z,97812.59
2018-04-15T20:21:30.627Z,97806.87
2018-04-15T20:23:58.110Z,97812.48
2018-04-15T20:26:25.596Z,97805.98
2018-04-15T20:28:53.099Z,97812.36
2018-04-15T20:31:20.576Z,97819.61
2018-04-15T20:33:48.119Z,97817.80
2018-04-15T20:36:15.640Z,97819.83
2018-04-15T20:38:43.332Z,97817.51
2018-04-15T20:41:10.822Z,97814.58
2018-04-15T20:43:38.482Z,97815.61
2018-04-15T20:46:05.976Z,97811.78
2018-04-15T20:48:33.598Z,97811.20
2018-04-15T20:51:01.253Z,97811.23
2018-04-15T20:53:28.744Z,97807.78
2018-04-15T20:55:56.257Z,97810.42
2018-04-15T20:58:26.190Z,97810.80
2018-04-15T21:00:53.848Z,97806.69
2018-04-15T21:03:21.717Z,97813.59
2018-04-15T21:05:49.298Z,97811.33
2018-04-15T21:08:16.827Z,97814.28
2018-04-15T21:10:44.549Z,97813.41
2018-04-15T21:13:12.050Z,97809.06
2018-04-15T21:18:13.490Z,97799.50
2018-04-15T21:20:40.992Z,97797.67
2018-04-15T21:23:08.493Z,97804.59
2018-04-15T21:25:35.975Z,97799.38
2018-04-15T21:28:03.451Z,97796.54
2018-04-15T21:30:32.059Z,97793.64
2018-04-15T21:32:59.763Z,97792.38
2018-04-15T21:35:30.662Z,97788.76
2018-04-15T21:38:00.070Z,97793.36
2018-04-15T21:40:27.646Z,97790.70
2018-04-15T21:42:55.204Z,97786.89
2018-04-15T21:45:22.711Z,97781.78
2018-04-15T21:47:50.211Z,97777.19
2018-04-15T21:50:17.745Z,97778.81
2018-04-15T21:52:45.224Z,97775.62
2018-04-15T21:55:12.842Z,97784.64
2018-04-15T21:57:40.425Z,97782.71
2018-04-15T22:00:07.925Z,97781.69
2018-04-15T22:02:35.402Z,97783.58
2018-04-15T22:05:03.002Z,97785.52
2018-04-15T22:07:30.491Z,97784.96
2018-04-15T22:09:57.966Z,97790.66
2018-04-15T22:12:25.478Z,97787.14
2018-04-15T22:14:52.969Z,97799.10
2018-04-15T22:17:20.447Z,97796.89
2018-04-15T22:19:47.911Z,97805.91
2018-04-15T22:22:15.430Z,97808.86
2018-04-15T22:24:42.899Z,97805.23
2018-04-15T22:27:10.369Z,97801.38
2018-04-15T22:29:37.848Z,97807.47
2018-04-15T22:32:05.352Z,97808.38
2018-04-15T22:34:32.834Z,97806.05
2018-04-15T22:37:00.408Z,97803.06
2018-04-15T22:39:27.942Z,97802.17
2018-04-15T22:41:55.435Z,97791.22
2018-04-15T22:44:22.987Z,97788.55
2018-04-15T22:46:50.456Z,97781.72
2018-04-15T22:49:22.710Z,97784.16
2018-04-15T22:51:50.194Z,97797.86
2018-04-15T22:54:17.816Z,97801.84
2018-04-15T22:56:45.929Z,97801.60
2018-04-15T22:59:13.560Z,97804.67
2018-04-15T23:01:41.075Z,97801.36
2018-04-15T23:04:08.592Z,97804.44
2018-04-15T23:06:36.279Z,97797.14
2018-04-15T23:09:03.785Z,97796.65
2018-04-15T23:11:31.259Z,97791.88
2018-04-15T23:13:58.755Z,97795.33
2018-04-15T23:16:26.529Z,97790.31
2018-04-15T23:18:54.012Z,97796.23
2018-04-15T23:21:21.498Z,97790.66
2018-04-15T23:23:49.018Z,97785.53
2018-04-15T23:26:16.500Z,97799.60
2018-04-15T23:28:43.981Z,97802.06
2018-04-15T23:31:11.470Z,97812.16
2018-04-15T23:33:38.954Z,97820.17
2018-04-15T23:36:06.432Z,97822.73
2018-04-15T23:38:33.919Z,97816.42
2018-04-15T23:41:01.431Z,97818.98
2018-04-15T23:43:28.880Z,97818.58
2018-04-15T23:45:56.360Z,97822.77
2018-04-15T23:48:23.821Z,97823.95
2018-04-15T23:50:51.294Z,97826.47
2018-04-15T23:53:18.832Z,97828.32
2018-04-15T23:55:46.305Z,97834.89
2018-04-15T23:58:13.802Z,97831.71
